Time;durP1;ratioP1;P1;durP2;ratioP2;P2;SDS_P1;SDS_P2;PMS_P1;PMS_P2;Temp;Humidity;BMP_temperature;BMP_pressure;BME280_temperature;BME280_humidity;BME280_pressure;Samples;Min_cycle;Max_cycle;Signal;HPM_P1;HPM_P2
2022/04/23 00:02:25;;;;;;;29.23;11.98;;;5.80;99.90;;;4.24;100.00;100962.78;5018832;28;20520;-70
2022/04/23 00:04:51;;;;;;;21.45;10.75;;;5.60;99.90;;;4.08;100.00;100962.16;5021163;28;20053;-70
2022/04/23 00:07:35;;;;;;;22.10;11.32;;;5.50;99.90;;;3.96;100.00;100971.03;5021221;28;20104;-70
2022/04/23 00:10:02;;;;;;;20.83;11.52;;;5.40;99.90;;;3.86;100.00;100959.03;5020578;28;20045;-70
2022/04/23 00:12:27;;;;;;;27.10;11.60;;;5.40;99.90;;;3.79;100.00;100967.81;5018494;28;20018;-71
2022/04/23 00:17:37;;;;;;;28.75;13.98;;;5.20;99.90;;;3.66;100.00;100968.00;5033158;28;20040;-70
2022/04/23 00:20:05;;;;;;;40.83;15.07;;;5.20;99.90;;;3.66;100.00;100962.78;5022187;28;20021;-71
2022/04/23 00:22:33;;;;;;;28.30;14.93;;;5.10;99.90;;;3.67;100.00;100956.72;5020193;28;20033;-70
2022/04/23 00:25:00;;;;;;;29.75;14.13;;;5.10;99.90;;;3.63;100.00;100965.44;5034733;28;20034;-71
2022/04/23 00:27:26;;;;;;;29.10;12.85;;;5.10;99.90;;;3.55;100.00;100969.03;5013755;28;20108;-70
2022/04/23 00:29:52;;;;;;;27.83;11.93;;;5.00;99.90;;;3.44;100.00;100970.03;5017536;28;20440;-71
2022/04/23 00:32:18;;;;;;;30.90;12.43;;;4.90;99.90;;;3.31;100.00;100959.81;5018762;28;20112;-71
2022/04/23 00:34:44;;;;;;;29.38;12.35;;;4.80;99.90;;;3.22;100.00;100956.44;5034875;28;20385;-70
2022/04/23 00:37:10;;;;;;;28.45;12.48;;;4.70;99.90;;;3.16;100.00;100963.47;5035718;28;20027;-70
2022/04/23 00:39:55;;;;;;;25.15;11.25;;;4.60;99.90;;;3.10;100.00;100966.16;5021800;28;20548;-70
2022/04/23 00:42:20;;;;;;;33.10;13.95;;;4.60;99.90;;;3.03;100.00;100968.81;5025757;28;20500;-70
2022/04/23 00:44:46;;;;;;;37.70;15.18;;;4.60;99.90;;;3.03;100.00;100967.97;5047281;28;20033;-70
2022/04/23 00:47:12;;;;;;;32.15;15.65;;;4.50;99.90;;;3.04;100.00;100967.91;5031560;28;20045;-70
2022/04/23 00:49:38;;;;;;;35.58;16.95;;;4.60;99.90;;;3.08;100.00;100972.22;5032972;28;20047;-70
2022/04/23 00:52:23;;;;;;;32.33;16.35;;;4.60;99.90;;;3.13;100.00;100969.53;5028802;28;20033;-70
2022/04/23 00:54:49;;;;;;;30.73;14.90;;;4.60;99.90;;;3.15;100.00;100966.94;5045275;28;20056;-71
2022/04/23 00:57:14;;;;;;;29.55;14.57;;;4.60;99.90;;;3.12;100.00;100965.25;5030657;28;20547;-70
2022/04/23 00:59:41;;;;;;;24.73;12.23;;;4.60;99.90;;;3.08;100.00;100967.00;5030008;28;20021;-70
2022/04/23 01:08:15;;;;;;;22.23;11.23;;;4.30;99.90;;;2.60;100.00;100963.22;5023122;28;20044;-70
2022/04/23 01:11:19;;;;;;;23.13;10.93;;;4.10;99.90;;;2.37;100.00;100966.03;5024476;28;20033;-70
2022/04/23 01:13:45;;;;;;;21.15;10.25;;;3.90;99.90;;;2.21;100.00;100968.75;5022435;28;20447;-70
2022/04/23 01:18:56;;;;;;;25.17;12.48;;;3.70;99.90;;;2.01;100.00;100965.47;5020644;28;20027;-71
2022/04/23 01:24:27;;;;;;;29.15;14.98;;;3.50;99.90;;;1.93;100.00;100967.25;5023041;28;20040;-70
2022/04/23 01:26:53;;;;;;;35.95;15.57;;;3.50;99.90;;;1.98;100.00;100973.28;5023377;28;20029;-71
2022/04/23 01:29:19;;;;;;;32.10;17.08;;;3.60;99.90;;;2.04;100.00;100968.03;5030309;28;20049;-70
2022/04/23 01:32:04;;;;;;;43.60;17.25;;;3.60;99.90;;;2.12;100.00;100963.66;5033038;28;20138;-71
2022/04/23 01:37:33;;;;;;;37.42;17.25;;;3.70;99.90;;;2.19;100.00;100969.66;5021227;28;20027;-70
2022/04/23 01:40:00;;;;;;;38.92;18.80;;;3.70;99.90;;;2.24;100.00;100973.91;5023910;28;20025;-71
2022/04/23 01:42:25;;;;;;;40.25;18.90;;;3.80;99.90;;;2.30;100.00;100966.97;5023635;28;20359;-70
2022/04/23 01:44:53;;;;;;;43.17;20.80;;;3.90;99.90;;;2.38;100.00;100962.56;5015339;28;20033;-70
2022/04/23 01:53:25;;;;;;;41.47;19.05;;;4.10;99.90;;;2.54;100.00;100961.53;5032010;28;20056;-70
2022/04/23 01:55:56;;;;;;;42.00;18.60;;;4.10;99.90;;;2.49;100.00;100959.88;5035926;28;20614;-70
2022/04/23 01:58:23;;;;;;;50.33;20.40;;;4.10;99.90;;;2.55;100.00;100965.88;5013517;28;20112;-70
2022/04/23 02:00:50;;;;;;;41.72;18.27;;;4.10;99.90;;;2.55;100.00;100973.66;5037150;28;20033;-71
2022/04/23 02:03:18;;;;;;;46.78;20.63;;;4.10;99.90;;;2.50;100.00;100965.03;5024129;28;20061;-71
2022/04/23 02:06:02;;;;;;;38.45;18.98;;;4.10;99.90;;;2.52;100.00;100973.69;5020596;28;20382;-70
2022/04/23 02:08:49;;;;;;;53.97;19.30;;;4.10;99.90;;;2.52;100.00;100973.69;5024366;28;20053;-70
2022/04/23 02:11:33;;;;;;;48.85;20.35;;;4.10;99.90;;;2.47;100.00;100976.31;5021597;28;20021;-70
2022/04/23 02:14:17;;;;;;;47.45;20.98;;;4.10;99.90;;;2.50;100.00;100982.38;5023365;28;20030;-70
2022/04/23 02:17:03;;;;;;;52.35;22.48;;;4.10;99.90;;;2.49;100.00;100984.13;5015437;28;20037;-71
2022/04/23 02:19:29;;;;;;;51.10;21.45;;;4.10;99.90;;;2.55;100.00;100984.06;5021099;28;20428;-71
2022/04/23 02:27:24;;;;;;;66.88;24.67;;;4.20;99.90;;;2.67;100.00;100983.06;5024835;28;20524;-70
2022/04/23 02:29:52;;;;;;;61.15;26.05;;;4.20;99.90;;;2.72;100.00;100978.69;5013954;28;20037;-71
2022/04/23 02:32:18;;;;;;;56.28;24.83;;;4.20;99.90;;;2.75;100.00;100986.47;5037341;28;20041;-71
2022/04/23 02:35:04;;;;;;;70.20;27.50;;;4.30;99.90;;;2.79;100.00;100974.31;5021119;28;20046;-71
2022/04/23 02:37:36;;;;;;;54.40;25.55;;;4.30;99.90;;;2.78;100.00;100972.56;5029624;28;20056;-72
2022/04/23 02:43:12;;;;;;;57.53;25.25;;;4.30;99.90;;;2.76;100.00;100974.31;5030698;28;20125;-71
2022/04/23 02:46:00;;;;;;;65.45;26.63;;;4.30;99.90;;;2.75;100.00;100964.81;5026278;28;20064;-71
2022/04/23 02:48:26;;;;;;;63.50;25.92;;;4.30;99.90;;;2.77;100.00;100968.25;5035769;28;25226;-71
2022/04/23 02:51:15;;;;;;;62.00;26.48;;;4.30;99.90;;;2.80;100.00;100974.25;5036265;28;20033;-71
2022/04/23 02:53:43;;;;;;;64.70;27.40;;;4.40;99.90;;;2.84;100.00;100975.94;5012362;28;20031;-70
2022/04/23 02:56:13;;;;;;;63.88;26.80;;;4.40;99.90;;;2.86;100.00;100973.34;5036556;28;20123;-71
2022/04/23 03:02:01;;;;;;;63.95;27.00;;;4.40;99.90;;;2.81;100.00;100975.16;5028942;28;20043;-70
2022/04/23 03:04:46;;;;;;;75.10;28.85;;;4.30;99.90;;;2.80;100.00;100986.41;5024254;28;20044;-71
2022/04/23 03:07:11;;;;;;;56.55;27.05;;;4.30;99.90;;;2.80;100.00;100986.41;5056444;28;20040;-71
2022/04/23 03:09:56;;;;;;;79.40;29.33;;;4.30;99.90;;;2.79;100.00;100989.91;5028964;28;20037;-70
2022/04/23 03:12:41;;;;;;;67.60;30.65;;;4.30;99.90;;;2.77;100.00;100981.25;5043195;28;20570;-71
2022/04/23 03:15:12;;;;;;;66.72;27.92;;;4.30;99.90;;;2.75;100.00;100986.47;5024737;28;20037;-70
2022/04/23 03:17:39;;;;;;;76.45;31.58;;;4.30;99.90;;;2.72;100.00;100983.03;5036736;28;20468;-71
2022/04/23 03:20:10;;;;;;;78.38;30.55;;;4.30;99.90;;;2.75;100.00;100981.25;5027523;28;20385;-71
2022/04/23 03:22:55;;;;;;;83.10;31.00;;;4.30;99.90;;;2.77;100.00;100984.72;5021904;28;20071;-71
2022/04/23 03:25:21;;;;;;;89.05;31.70;;;4.30;99.90;;;2.74;100.00;100991.66;5036663;28;20080;-72
2022/04/23 03:27:46;;;;;;;120.40;28.38;;;4.20;99.90;;;2.63;100.00;100997.81;5021438;28;20033;-71
2022/04/23 03:30:31;;;;;;;67.72;25.55;;;4.10;99.90;;;2.47;100.00;100996.25;5020638;28;20026;-71
2022/04/23 03:32:59;;;;;;;52.45;24.48;;;4.00;99.90;;;2.37;100.00;100989.41;5018182;28;20033;-70
2022/04/23 03:35:26;;;;;;;56.08;25.13;;;4.00;99.90;;;2.29;100.00;100988.59;5035181;28;20481;-72
2022/04/23 03:37:52;;;;;;;72.85;27.83;;;3.80;99.90;;;2.22;100.00;100990.41;5021939;28;20059;-71
2022/04/23 03:40:18;;;;;;;85.35;30.50;;;3.80;99.90;;;2.23;100.00;100986.94;5022107;28;20100;-72
2022/04/23 03:43:22;;;;;;;87.93;32.80;;;3.70;99.90;;;2.28;100.00;100992.09;5036654;28;20091;-71
2022/04/23 03:46:06;;;;;;;85.90;32.42;;;3.80;99.90;;;2.35;100.00;100984.22;5027238;28;20688;-71
2022/04/23 03:48:50;;;;;;;194.85;33.70;;;3.90;99.90;;;2.41;100.00;100985.91;5028533;28;20045;-71
2022/04/23 03:51:16;;;;;;;87.32;29.20;;;3.90;99.90;;;2.41;100.00;100981.56;5026602;28;20037;-72
2022/04/23 03:53:42;;;;;;;72.78;28.90;;;3.90;99.90;;;2.42;100.00;100980.72;5025275;28;20036;-71
2022/04/23 03:56:09;;;;;;;72.78;28.52;;;3.90;99.90;;;2.42;100.00;100983.31;5024283;28;20017;-71
2022/04/23 03:58:35;;;;;;;83.05;28.45;;;3.90;99.90;;;2.39;100.00;100975.53;5027325;28;20041;-71
2022/04/23 04:01:01;;;;;;;71.20;28.25;;;3.90;99.90;;;2.39;100.00;100980.72;5027214;28;20044;-71
2022/04/23 04:03:46;;;;;;;68.20;30.35;;;3.90;99.90;;;2.42;100.00;100972.06;5022767;28;20029;-71
2022/04/23 04:06:12;;;;;;;68.25;30.35;;;3.90;99.90;;;2.47;100.00;100978.91;5025276;28;20416;-71
2022/04/23 04:08:37;;;;;;;75.72;31.58;;;4.00;99.90;;;2.58;100.00;100985.75;5026784;28;20048;-71
2022/04/23 04:11:03;;;;;;;67.00;29.40;;;4.10;99.90;;;2.70;100.00;100979.56;5028489;28;20104;-71
2022/04/23 04:13:29;;;;;;;62.65;28.40;;;4.10;99.90;;;2.81;100.00;100985.56;5009129;28;20025;-71
2022/04/23 04:15:56;;;;;;;82.13;31.13;;;4.20;99.90;;;2.92;100.00;100982.84;5037761;28;20087;-71
2022/04/23 04:18:23;;;;;;;77.35;30.00;;;4.30;99.90;;;2.96;100.00;100980.19;5041047;28;20047;-71
2022/04/23 04:20:49;;;;;;;75.55;30.95;;;4.40;99.90;;;3.07;100.00;100982.66;5014641;28;20013;-72
2022/04/23 04:23:16;;;;;;;76.00;31.55;;;4.40;99.90;;;3.15;100.00;100977.34;5023606;28;20571;-71
2022/04/23 04:25:43;;;;;;;77.97;30.67;;;4.50;99.90;;;3.22;100.00;100979.03;5024431;28;20076;-71
2022/04/23 04:28:09;;;;;;;69.53;28.95;;;4.60;99.90;;;3.31;100.00;100975.44;5027670;28;20120;-71
2022/04/23 04:33:22;;;;;;;59.30;27.70;;;4.80;99.90;;;3.64;100.00;100979.31;5036367;28;20091;-72
2022/04/23 04:35:47;;;;;;;72.82;25.48;;;4.80;99.90;;;3.64;100.00;100989.75;5023788;28;20025;-71
2022/04/23 04:38:13;;;;;;;69.65;24.77;;;4.90;99.90;;;3.98;100.00;100986.66;5023339;28;20025;-71
2022/04/23 04:40:39;;;;;;;56.83;24.67;;;5.00;99.90;;;4.06;100.00;100988.25;5008452;28;20156;-72
2022/04/23 04:43:05;;;;;;;64.22;26.33;;;5.90;99.90;;;6.02;100.00;100990.56;5037664;28;20017;-72
2022/04/23 04:45:31;;;;;;;56.00;25.30;;;7.20;99.90;;;8.50;100.00;101001.91;5023239;28;20064;-71
2022/04/23 04:47:56;;;;;;;56.63;24.90;;;8.60;99.90;;;10.36;93.36;100998.47;5034971;28;20215;-71
2022/04/23 04:50:23;;;;;;;53.60;23.13;;;9.80;99.90;;;11.95;79.73;100989.66;5020861;28;20081;-72
2022/04/23 04:52:49;;;;;;;36.40;20.15;;;11.10;99.90;;;13.60;70.18;100994.44;5038183;28;20155;-72
2022/04/23 04:55:16;;;;;;;39.72;18.23;;;12.30;99.90;;;15.05;63.35;100997.56;5024451;28;20037;-72
2022/04/23 04:57:42;;;;;;;38.72;17.23;;;13.40;99.90;;;16.35;58.53;100991.13;5025615;28;20025;-72
2022/04/23 05:00:09;;;;;;;25.08;15.55;;;14.40;99.90;;;17.49;54.58;101000.09;5022971;28;20033;-73
2022/04/23 05:02:35;;;;;;;24.70;13.70;;;15.20;99.90;;;18.23;51.84;101005.44;5005416;28;20075;-71
2022/04/23 05:05:00;;;;;;;25.98;13.20;;;15.90;99.90;;;19.02;49.95;101014.53;5022355;28;20120;-71
2022/04/23 05:07:26;;;;;;;21.17;12.75;;;16.60;99.90;;;19.82;48.32;101021.59;5022026;28;20022;-72
2022/04/23 05:09:52;;;;;;;20.70;11.55;;;17.10;99.90;;;20.25;46.83;101022.59;5043304;28;20037;-72
2022/04/23 05:12:18;;;;;;;17.48;10.45;;;17.50;99.90;;;20.55;45.52;101026.38;5033296;28;20044;-73
2022/04/23 05:14:43;;;;;;;24.27;10.50;;;17.80;99.90;;;20.72;44.81;101035.69;5038226;28;20452;-72
2022/04/23 05:17:09;;;;;;;18.80;10.25;;;18.20;99.90;;;21.30;43.70;101039.56;5039793;28;20087;-72
2022/04/23 05:19:35;;;;;;;19.42;9.48;;;18.50;99.90;;;21.59;42.86;101046.91;5021408;28;20029;-73
2022/04/23 05:22:01;;;;;;;17.13;9.13;;;18.80;99.90;;;22.33;42.14;101048.34;5023086;28;20052;-73
2022/04/23 05:24:27;;;;;;;13.77;7.82;;;19.20;99.90;;;22.55;41.04;101049.94;5012388;28;20021;-73
2022/04/23 05:26:52;;;;;;;19.58;8.27;;;19.30;99.90;;;22.72;40.92;101067.16;5045404;28;20033;-73
2022/04/23 05:29:18;;;;;;;15.63;8.55;;;19.70;99.90;;;23.67;39.42;101079.69;5027443;28;20037;-73
2022/04/23 05:31:44;;;;;;;16.50;8.05;;;20.10;99.80;;;24.56;37.86;101088.97;5032862;28;20017;-72
2022/04/23 05:34:10;;;;;;;15.30;7.25;;;20.70;99.90;;;24.97;37.84;101094.72;5032189;28;20027;-72
2022/04/23 05:36:35;;;;;;;14.55;7.10;;;21.00;98.50;;;25.34;37.11;101097.19;5036088;28;20057;-73
2022/04/23 05:39:01;;;;;;;11.50;6.35;;;21.40;97.70;;;25.86;35.80;101108.91;5028584;28;20025;-73
2022/04/23 05:41:27;;;;;;;12.60;6.18;;;21.30;95.90;;;24.61;36.40;101112.75;5030103;28;20183;-73
2022/04/23 05:43:53;;;;;;;12.38;5.95;;;21.00;96.50;;;24.05;38.24;101114.63;5033625;28;20029;-73
2022/04/23 05:46:18;;;;;;;13.70;5.78;;;20.80;97.00;;;24.49;37.51;101118.34;5027743;28;20086;-72
2022/04/23 05:48:44;;;;;;;11.25;5.60;;;21.10;97.20;;;25.22;36.13;101129.94;5029680;28;20037;-73
2022/04/23 05:51:10;;;;;;;12.48;5.20;;;20.90;96.00;;;23.99;37.32;101136.75;5020315;28;20045;-74
2022/04/23 05:53:36;;;;;;;10.10;5.40;;;20.60;96.50;;;23.58;38.03;101138.84;5027076;28;20481;-73
2022/04/23 05:56:02;;;;;;;13.43;5.53;;;20.50;96.80;;;24.08;37.43;101138.53;5031231;28;20108;-73
2022/04/23 05:58:28;;;;;;;9.82;4.65;;;20.40;96.80;;;23.23;37.82;101146.56;5044247;28;20017;-73
2022/04/23 06:00:54;;;;;;;9.30;4.85;;;20.20;96.50;;;23.58;37.54;101160.34;5029446;28;20106;-72
2022/04/23 06:03:20;;;;;;;8.30;4.65;;;20.30;97.10;;;24.02;38.03;101161.50;5027843;28;20489;-73
2022/04/23 06:05:46;;;;;;;10.02;4.95;;;20.80;96.20;;;24.62;36.35;101166.44;5070814;23;20172;-76
2022/04/23 06:08:13;;;;;;;7.85;4.40;;;20.60;95.80;;;23.61;37.33;101168.13;4966773;28;20102;-76
2022/04/23 06:10:39;;;;;;;10.70;4.85;;;20.00;96.70;;;22.17;40.11;101156.16;5003135;28;20029;-76
2022/04/23 06:13:08;;;;;;;10.60;4.32;;;20.00;96.80;;;23.04;38.50;101165.38;5008636;28;20022;-76
2022/04/23 06:15:35;;;;;;;11.20;4.90;;;19.80;97.50;;;23.23;38.72;101172.59;4999028;28;20021;-76
2022/04/23 06:18:01;;;;;;;14.60;5.25;;;20.20;96.80;;;22.82;38.55;101178.06;5011875;28;20017;-76
2022/04/23 06:20:27;;;;;;;11.50;4.80;;;20.00;97.00;;;21.21;42.02;101170.72;4995545;28;20029;-76
2022/04/23 06:22:53;;;;;;;9.88;4.82;;;19.90;97.20;;;21.78;40.43;101173.94;5013895;28;20358;-76
2022/04/23 06:25:19;;;;;;;11.23;4.68;;;19.20;97.20;;;20.11;42.82;101184.13;5019659;28;20025;-75
2022/04/23 06:27:45;;;;;;;;;;;19.20;98.50;;;17.65;46.67;101169.44;5015293;28;20018;-75
2022/04/23 06:30:11;;;;;;;12.48;4.85;;;17.10;99.80;;;16.93;50.36;101180.47;5003030;28;20585;-74
2022/04/23 06:32:38;;;;;;;;;;;17.20;99.90;;;16.47;51.83;101186.13;5020717;28;20021;-75
2022/04/23 06:35:05;;;;;;;;;;;16.60;99.90;;;16.00;52.90;101180.19;5013465;28;20288;-75
2022/04/23 06:37:32;;;;;;;;;;;16.60;99.90;;;17.24;51.61;101171.31;5038533;28;19905;-77
2022/04/23 06:39:58;;;;;;;11.88;5.10;;;16.70;99.90;;;19.18;48.21;101176.19;5006495;28;20007;-77
2022/04/23 06:42:24;;;;;;;11.25;4.70;;;17.80;99.90;;;20.81;43.66;101174.91;5015827;28;20605;-78
2022/04/23 06:44:50;;;;;;;7.28;4.55;;;18.30;99.80;;;20.07;43.69;101190.69;5010123;28;20025;-75
2022/04/23 06:47:16;;;;;;;13.75;4.90;;;18.20;99.60;;;19.90;44.36;101188.50;5011259;28;20516;-76
2022/04/23 06:49:42;;;;;;;13.25;4.53;;;18.50;99.40;;;20.11;44.31;101194.84;5013507;28;20123;-76
2022/04/23 06:52:08;;;;;;;9.90;4.72;;;19.10;99.70;;;21.42;43.00;101194.88;5003811;28;20032;-77
2022/04/23 06:54:36;;;;;;;7.35;4.32;;;20.00;98.20;;;22.66;40.50;101196.56;5010878;28;20144;-76
2022/04/23 06:57:02;;;;;;;12.82;4.50;;;20.50;97.00;;;22.30;40.45;101201.56;5014062;28;21220;-76
2022/04/23 06:59:28;;;;;;;14.15;4.65;;;20.60;95.70;;;21.58;40.96;101213.19;5020234;28;20056;-76
2022/04/23 07:01:54;;;;;;;9.20;4.10;;;20.80;96.30;;;22.27;40.74;101213.41;5020743;28;20028;-76
2022/04/23 07:04:20;;;;;;;11.50;4.53;;;21.30;96.80;;;23.19;40.25;101216.84;5020121;28;20143;-76
2022/04/23 07:06:46;;;;;;;9.70;4.65;;;21.90;94.40;;;23.23;38.65;101215.56;5011376;28;20556;-77
2022/04/23 07:09:12;;;;;;;7.35;3.75;;;22.30;94.80;;;23.64;39.02;101218.91;4975277;28;20564;-77
2022/04/23 07:11:40;;;;;;;7.72;4.13;;;22.80;93.40;;;24.10;37.45;101217.22;5011512;28;20156;-76
2022/04/23 07:14:07;;;;;;;10.23;4.50;;;23.30;94.00;;;24.55;37.59;101225.41;5008770;28;20040;-76
2022/04/23 07:16:33;;;;;;;8.80;4.00;;;23.60;91.20;;;24.11;36.12;101229.72;5023112;28;20026;-76
2022/04/23 07:19:00;;;;;;;7.40;4.15;;;23.40;92.70;;;24.11;38.07;101221.63;5013538;28;20094;-76
2022/04/23 07:21:26;;;;;;;8.38;4.00;;;23.70;91.70;;;24.18;36.99;101230.81;5009301;28;20029;-77
2022/04/23 07:24:05;;;;;;;10.65;4.20;;;23.70;92.50;;;24.54;36.25;101229.09;5023580;28;20444;-76
2022/04/23 07:26:34;;;;;;;9.20;3.97;;;23.70;89.40;;;23.49;37.37;101227.41;4985691;28;20651;-76
2022/04/23 07:29:06;;;;;;;8.93;4.20;;;23.90;90.10;;;24.27;36.54;101239.81;4985523;28;20575;-75
2022/04/23 07:31:33;;;;;;;12.85;4.05;;;23.80;91.00;;;23.89;37.77;101234.44;5014652;28;20108;-78
2022/04/23 07:39:29;;;;;;;7.55;4.45;;;22.50;91.70;;;21.50;41.29;101230.75;4998640;28;20447;-78
2022/04/23 07:41:58;;;;;;;8.02;4.25;;;22.80;91.60;;;22.34;40.31;101227.13;5031631;28;20018;-77
2022/04/23 07:44:24;;;;;;;10.98;4.38;;;22.80;91.30;;;22.13;40.51;101229.81;5027637;28;20037;-77
2022/04/23 07:46:51;;;;;;;9.68;4.38;;;22.90;91.50;;;21.99;40.23;101235.56;4996910;28;20030;-77
2022/04/23 07:49:17;;;;;;;9.40;4.47;;;22.80;90.80;;;21.97;40.29;101230.31;5008942;28;20049;-77
2022/04/23 07:51:46;;;;;;;13.38;4.75;;;23.00;91.50;;;22.42;39.95;101248.75;4998383;28;20028;-77
2022/04/23 07:54:14;;;;;;;8.70;4.68;;;23.00;91.10;;;22.64;39.70;101236.97;5005149;28;20040;-76
2022/04/23 07:56:41;;;;;;;10.43;5.15;;;23.00;91.10;;;21.96;40.64;101242.00;5010980;28;20102;-76
2022/04/23 07:59:08;;;;;;;11.18;5.35;;;23.00;92.50;;;22.48;41.22;101236.63;4996679;28;20025;-76
2022/04/23 08:01:34;;;;;;;7.50;4.22;;;23.00;91.00;;;21.95;39.94;101232.28;4992585;28;20064;-76
2022/04/23 08:04:03;;;;;;;11.52;5.40;;;22.30;91.70;;;21.21;42.38;101234.97;5012168;28;20041;-77
2022/04/23 08:06:31;;;;;;;10.90;5.50;;;22.30;92.60;;;21.53;42.71;101228.78;4996223;28;20116;-76
2022/04/23 08:09:00;;;;;;;11.10;5.10;;;22.40;92.70;;;21.61;42.27;101223.63;5013162;28;20039;-76
2022/04/23 08:11:26;;;;;;;9.77;5.30;;;22.00;91.80;;;20.58;42.44;101233.00;5004886;28;20444;-76
2022/04/23 08:13:53;;;;;;;10.60;5.68;;;21.10;92.90;;;19.39;45.89;101232.44;5000855;28;20100;-76
2022/04/23 08:16:20;;;;;;;10.50;5.63;;;21.20;95.00;;;20.28;46.28;101217.56;5017480;28;20043;-76
2022/04/23 08:18:46;;;;;;;15.18;5.90;;;21.40;93.80;;;20.71;44.17;101219.44;5020837;28;20036;-77
2022/04/23 08:21:12;;;;;;;12.27;6.80;;;21.50;92.90;;;20.56;43.63;101221.53;5011827;28;20501;-76
2022/04/23 08:23:37;;;;;;;9.68;6.35;;;21.40;93.20;;;20.48;43.43;101224.81;4989612;28;20033;-76
2022/04/23 08:26:06;;;;;;;;;;;21.40;93.60;;;18.91;44.80;101228.00;4993967;28;20017;-76
2022/04/23 08:31:18;;;;;;;14.70;7.00;;;20.00;94.50;;;18.79;47.32;101207.53;5040299;28;20032;-76
2022/04/23 08:33:59;;;;;;;13.38;5.28;;;19.90;94.50;;;18.17;47.29;101206.63;5017614;28;20026;-77
2022/04/23 08:36:29;;;;;;;13.25;6.68;;;18.70;95.60;;;16.82;50.42;101215.75;5020430;28;21493;-77
2022/04/23 08:38:57;;;;;;;13.38;7.20;;;17.70;96.90;;;16.14;52.77;101213.88;4971841;28;20489;-77
2022/04/23 08:41:29;;;;;;;20.35;6.93;;;17.50;98.70;;;16.51;53.25;101208.88;5018651;28;20017;-76
2022/04/23 08:44:06;;;;;;;13.93;5.97;;;17.40;98.70;;;16.42;52.94;101217.47;5001756;28;20053;-77
2022/04/23 08:46:34;;;;;;;10.65;5.50;;;16.90;99.30;;;15.72;55.06;101210.22;5010126;28;20066;-76
2022/04/23 08:49:16;;;;;;;8.70;3.92;;;16.80;99.60;;;15.58;54.47;101203.06;4993819;28;20124;-77
2022/04/23 08:51:53;;;;;;;10.85;4.00;;;16.40;99.90;;;15.15;55.58;101200.31;5028816;28;20037;-76
2022/04/23 08:54:24;;;;;;;10.10;5.00;;;16.20;99.90;;;15.45;56.57;101194.16;5003850;28;20069;-76
2022/04/23 08:56:49;;;;;;;10.05;5.25;;;16.30;99.90;;;15.60;57.00;101190.56;4988535;28;20116;-75
2022/04/23 08:59:20;;;;;;;20.88;5.60;;;16.30;99.90;;;15.24;57.49;101190.94;5002284;28;20150;-76
2022/04/23 09:01:46;;;;;;;12.95;4.80;;;16.00;99.90;;;14.67;59.49;101186.28;4970804;28;20033;-77
2022/04/23 09:04:12;;;;;;;21.33;5.30;;;15.80;99.90;;;14.40;59.93;101183.31;5012535;28;20037;-78
2022/04/23 09:06:46;;;;;;;11.98;4.68;;;15.20;99.90;;;13.38;60.10;101172.84;5007203;28;20106;-77
2022/04/23 09:09:21;;;;;;;10.43;4.80;;;14.80;99.90;;;13.26;63.24;101168.13;4993843;28;20037;-77
2022/04/23 09:11:58;;;;;;;16.75;5.57;;;14.80;99.90;;;13.28;63.28;101161.88;5008740;28;20024;-77
2022/04/23 09:14:30;;;;;;;10.05;4.65;;;14.60;99.90;;;13.40;64.66;101144.50;5003973;28;20099;-78
2022/04/23 09:25:39;;;;;;;10.45;4.45;;;14.00;99.90;;;12.72;65.92;101139.06;4999939;28;20036;-77
2022/04/23 09:28:20;;;;;;;12.82;4.90;;;13.80;99.90;;;12.65;66.98;101125.31;4993935;28;20090;-77
2022/04/23 09:30:56;;;;;;;10.63;4.43;;;14.00;99.90;;;13.16;67.77;101120.16;5047848;28;20048;-77
2022/04/23 09:33:30;;;;;;;16.70;4.32;;;14.10;99.90;;;13.04;66.27;101107.56;5013984;28;20036;-77
2022/04/23 09:36:02;;;;;;;12.25;5.00;;;14.00;99.90;;;12.92;65.47;101096.69;5026810;28;20115;-76
2022/04/23 09:38:29;;;;;;;16.15;5.25;;;14.20;99.90;;;13.18;64.87;101096.28;5005214;28;20077;-76
2022/04/23 09:41:16;;;;;;;15.35;5.75;;;14.30;99.90;;;13.44;65.54;101093.16;4967140;28;20051;-76
2022/04/23 09:43:44;;;;;;;11.60;5.07;;;14.30;99.90;;;13.31;65.44;101090.31;5015080;28;20033;-77
2022/04/23 09:46:10;;;;;;;10.57;4.45;;;14.60;99.90;;;13.79;65.67;101081.63;5010140;28;20032;-77
2022/04/23 09:48:39;;;;;;;11.60;4.45;;;14.90;99.90;;;14.14;64.89;101080.53;5023023;28;20041;-77
2022/04/23 09:51:28;;;;;;;12.35;4.47;;;14.90;99.90;;;13.78;63.30;101074.63;4984314;28;20052;-76
2022/04/23 09:53:55;;;;;;;9.68;4.35;;;14.80;99.90;;;13.57;63.63;101079.28;4981119;28;20115;-76
2022/04/23 09:56:25;;;;;;;13.45;5.28;;;14.70;99.90;;;13.66;63.54;101077.00;4986846;28;20021;-77
2022/04/23 09:58:53;;;;;;;13.90;4.88;;;14.90;99.90;;;13.94;63.27;101071.06;5023079;28;20032;-76
2022/04/23 10:01:21;;;;;;;11.85;4.97;;;14.80;99.90;;;13.66;63.18;101079.63;5011994;28;20036;-76
2022/04/23 10:03:54;;;;;;;10.38;4.05;;;14.80;99.90;;;13.37;62.64;101089.16;5007960;28;20035;-77
2022/04/23 10:06:23;;;;;;;9.50;4.25;;;14.60;99.90;;;13.45;64.85;101062.28;5021795;28;20041;-77
2022/04/23 10:08:59;;;;;;;10.07;4.80;;;14.70;99.90;;;13.66;64.12;101063.75;5005130;28;20037;-77
2022/04/23 10:11:30;;;;;;;11.25;4.65;;;14.80;99.90;;;13.94;63.93;101055.16;5017787;28;20353;-77
2022/04/23 10:14:04;;;;;;;10.30;4.80;;;15.00;99.90;;;14.26;62.30;101056.97;4970681;28;20036;-77
2022/04/23 10:16:32;;;;;;;12.38;4.30;;;15.20;99.90;;;14.34;62.53;101054.72;5006698;28;20056;-76
2022/04/23 10:19:00;;;;;;;17.70;4.53;;;15.30;99.90;;;14.35;62.79;101053.78;5014023;28;20037;-78
2022/04/23 10:22:09;;;;;;;5.53;2.88;;;15.50;99.90;;;14.15;60.50;101047.81;5014123;28;20103;-76
2022/04/23 10:25:33;;;;;;;11.55;4.55;;;15.30;99.90;;;13.89;61.64;101051.94;5017497;28;20032;-77
2022/04/23 10:27:59;;;;;;;16.40;4.53;;;15.10;99.90;;;13.93;62.18;101047.31;4997534;28;20059;-77
2022/04/23 10:30:27;;;;;;;8.77;2.70;;;14.90;99.90;;;13.42;62.30;101052.72;5007623;28;20028;-77
2022/04/23 10:32:53;;;;;;;14.48;4.03;;;14.80;99.90;;;13.58;63.56;101047.44;5012357;28;20029;-76
2022/04/23 10:35:19;;;;;;;7.57;3.58;;;14.80;99.90;;;13.56;61.82;101044.03;4994189;28;20029;-77
2022/04/23 10:37:48;;;;;;;10.18;3.47;;;14.80;99.90;;;13.67;62.69;101041.69;5008049;28;20573;-77
2022/04/23 10:40:19;;;;;;;10.50;3.55;;;14.80;99.90;;;13.81;62.92;101054.13;5026916;28;20071;-76
2022/04/23 10:43:03;;;;;;;8.38;3.13;;;14.70;99.90;;;13.45;61.80;101041.09;5013872;28;20028;-77
2022/04/23 10:45:38;;;;;;;10.90;3.75;;;14.60;99.90;;;13.64;62.96;101031.25;4996394;28;20044;-77
2022/04/23 10:48:23;;;;;;;8.18;3.05;;;14.80;99.90;;;14.06;61.60;101035.13;5001128;28;20436;-76
2022/04/23 10:51:19;;;;;;;8.77;3.22;;;15.00;99.90;;;14.16;61.76;101017.75;5000681;28;20024;-77
2022/04/23 10:53:46;;;;;;;8.27;3.00;;;15.20;99.90;;;14.16;60.79;101025.69;5006288;28;20020;-76
2022/04/23 10:56:19;;;;;;;10.30;2.88;;;15.30;99.90;;;14.27;60.46;101021.56;5025845;28;20440;-76
2022/04/23 10:58:46;;;;;;;10.07;3.33;;;15.30;99.90;;;14.27;60.79;101024.22;4998097;28;20080;-77
2022/04/23 11:01:30;;;;;;;9.98;2.55;;;15.50;99.90;;;14.67;60.01;101017.50;5010390;28;20089;-77
2022/04/23 11:03:57;;;;;;;8.75;2.53;;;15.70;99.90;;;14.83;59.95;101014.78;5002896;28;20037;-76
2022/04/23 11:12:30;;;;;;;4.90;1.92;;;16.00;99.90;;;14.91;57.73;101011.69;5038790;28;20446;-76
2022/04/23 11:14:57;;;;;;;5.15;2.03;;;16.00;99.90;;;14.80;57.93;101000.88;5022605;28;20067;-77
2022/04/23 11:17:30;;;;;;;17.38;2.80;;;16.00;99.90;;;14.87;58.78;101005.69;4995449;28;20030;-76
2022/04/23 11:19:56;;;;;;;7.38;2.70;;;16.00;99.90;;;14.89;59.39;100998.50;5018866;28;20029;-77
2022/04/23 11:22:24;;;;;;;6.70;1.95;;;16.10;99.90;;;15.18;58.71;101011.78;4994279;28;20064;-76